sensor_id;sensor_type;location;lat;lon;timestamp;P1;durP1;ratioP1;P2;durP2;ratioP2
3891;SDS011;1961;48.194;16.370;2022-08-21T00:01:37;42.30;;;6.43;;
3891;SDS011;1961;48.194;16.370;2022-08-21T00:04:04;42.60;;;6.60;;
3891;SDS011;1961;48.194;16.370;2022-08-21T00:06:31;43.90;;;6.67;;
3891;SDS011;1961;48.194;16.370;2022-08-21T00:08:59;44.27;;;6.80;;
3891;SDS011;1961;48.194;16.370;2022-08-21T00:11:25;42.97;;;6.60;;
3891;SDS011;1961;48.194;16.370;2022-08-21T00:13:52;43.83;;;6.70;;
3891;SDS011;1961;48.194;16.370;2022-08-21T00:16:18;42.50;;;6.30;;
3891;SDS011;1961;48.194;16.370;2022-08-21T00:18:44;42.80;;;7.00;;
3891;SDS011;1961;48.194;16.370;2022-08-21T00:21:14;42.23;;;6.97;;
3891;SDS011;1961;48.194;16.370;2022-08-21T00:23:40;43.17;;;6.43;;
3891;SDS011;1961;48.194;16.370;2022-08-21T00:26:07;43.40;;;6.80;;
3891;SDS011;1961;48.194;16.370;2022-08-21T00:28:33;42.50;;;6.53;;
3891;SDS011;1961;48.194;16.370;2022-08-21T00:31:00;42.27;;;6.37;;
3891;SDS011;1961;48.194;16.370;2022-08-21T00:33:29;42.50;;;6.63;;
3891;SDS011;1961;48.194;16.370;2022-08-21T00:35:55;43.10;;;7.00;;
3891;SDS011;1961;48.194;16.370;2022-08-21T00:38:22;42.60;;;7.00;;
3891;SDS011;1961;48.194;16.370;2022-08-21T00:40:53;43.13;;;7.30;;
3891;SDS011;1961;48.194;16.370;2022-08-21T00:43:21;42.20;;;6.77;;
3891;SDS011;1961;48.194;16.370;2022-08-21T00:45:47;43.47;;;7.93;;
3891;SDS011;1961;48.194;16.370;2022-08-21T00:48:13;43.00;;;6.93;;
3891;SDS011;1961;48.194;16.370;2022-08-21T00:50:42;42.57;;;7.03;;
3891;SDS011;1961;48.194;16.370;2022-08-21T00:53:08;42.93;;;7.20;;
3891;SDS011;1961;48.194;16.370;2022-08-21T00:55:36;43.70;;;7.37;;
3891;SDS011;1961;48.194;16.370;2022-08-21T00:58:04;43.23;;;7.23;;
3891;SDS011;1961;48.194;16.370;2022-08-21T01:00:34;42.20;;;6.83;;
3891;SDS011;1961;48.194;16.370;2022-08-21T01:03:01;42.90;;;6.73;;
3891;SDS011;1961;48.194;16.370;2022-08-21T01:05:31;42.37;;;6.57;;
3891;SDS011;1961;48.194;16.370;2022-08-21T01:07:57;43.80;;;7.27;;
3891;SDS011;1961;48.194;16.370;2022-08-21T01:10:23;42.53;;;6.97;;
3891;SDS011;1961;48.194;16.370;2022-08-21T01:12:51;44.70;;;7.73;;
3891;SDS011;1961;48.194;16.370;2022-08-21T01:15:18;42.87;;;6.77;;
3891;SDS011;1961;48.194;16.370;2022-08-21T01:17:45;43.77;;;7.60;;
3891;SDS011;1961;48.194;16.370;2022-08-21T01:20:11;43.77;;;7.40;;
3891;SDS011;1961;48.194;16.370;2022-08-21T01:22:38;43.17;;;7.87;;
3891;SDS011;1961;48.194;16.370;2022-08-21T01:25:05;43.90;;;7.57;;
3891;SDS011;1961;48.194;16.370;2022-08-21T01:27:31;44.27;;;8.30;;
3891;SDS011;1961;48.194;16.370;2022-08-21T01:29:59;44.23;;;8.00;;
3891;SDS011;1961;48.194;16.370;2022-08-21T01:32:27;44.30;;;8.47;;
3891;SDS011;1961;48.194;16.370;2022-08-21T01:34:53;42.70;;;7.73;;
3891;SDS011;1961;48.194;16.370;2022-08-21T01:37:20;43.17;;;7.50;;
3891;SDS011;1961;48.194;16.370;2022-08-21T01:39:47;43.67;;;8.37;;
3891;SDS011;1961;48.194;16.370;2022-08-21T01:42:13;46.43;;;9.00;;
3891;SDS011;1961;48.194;16.370;2022-08-21T01:44:40;45.50;;;8.57;;
3891;SDS011;1961;48.194;16.370;2022-08-21T01:47:07;44.50;;;8.20;;
3891;SDS011;1961;48.194;16.370;2022-08-21T01:49:34;44.33;;;8.10;;
3891;SDS011;1961;48.194;16.370;2022-08-21T01:52:01;44.83;;;8.80;;
3891;SDS011;1961;48.194;16.370;2022-08-21T01:54:27;44.97;;;8.10;;
3891;SDS011;1961;48.194;16.370;2022-08-21T01:56:53;43.70;;;8.00;;
3891;SDS011;1961;48.194;16.370;2022-08-21T01:59:20;43.53;;;7.67;;
3891;SDS011;1961;48.194;16.370;2022-08-21T02:01:47;42.87;;;7.43;;
3891;SDS011;1961;48.194;16.370;2022-08-21T02:04:14;43.00;;;7.00;;
3891;SDS011;1961;48.194;16.370;2022-08-21T02:06:41;42.63;;;6.83;;
3891;SDS011;1961;48.194;16.370;2022-08-21T02:09:08;41.87;;;6.90;;
3891;SDS011;1961;48.194;16.370;2022-08-21T02:11:35;44.17;;;6.90;;
3891;SDS011;1961;48.194;16.370;2022-08-21T02:14:05;43.07;;;6.73;;
3891;SDS011;1961;48.194;16.370;2022-08-21T02:16:32;45.00;;;8.17;;
3891;SDS011;1961;48.194;16.370;2022-08-21T02:18:58;43.37;;;7.57;;
3891;SDS011;1961;48.194;16.370;2022-08-21T02:21:24;43.27;;;7.20;;
3891;SDS011;1961;48.194;16.370;2022-08-21T02:23:50;46.33;;;7.73;;
3891;SDS011;1961;48.194;16.370;2022-08-21T02:26:17;43.97;;;7.57;;
3891;SDS011;1961;48.194;16.370;2022-08-21T02:28:43;43.97;;;7.90;;
3891;SDS011;1961;48.194;16.370;2022-08-21T02:31:09;43.33;;;7.30;;
3891;SDS011;1961;48.194;16.370;2022-08-21T02:33:36;42.40;;;7.10;;
3891;SDS011;1961;48.194;16.370;2022-08-21T02:36:03;43.80;;;7.00;;
3891;SDS011;1961;48.194;16.370;2022-08-21T02:38:30;42.77;;;7.07;;
3891;SDS011;1961;48.194;16.370;2022-08-21T02:40:58;42.77;;;7.03;;
3891;SDS011;1961;48.194;16.370;2022-08-21T02:43:26;42.20;;;6.80;;
3891;SDS011;1961;48.194;16.370;2022-08-21T02:45:53;42.40;;;6.47;;
3891;SDS011;1961;48.194;16.370;2022-08-21T02:48:21;42.30;;;6.33;;
3891;SDS011;1961;48.194;16.370;2022-08-21T02:50:51;41.77;;;6.17;;
3891;SDS011;1961;48.194;16.370;2022-08-21T02:53:18;42.23;;;6.07;;
3891;SDS011;1961;48.194;16.370;2022-08-21T02:55:46;42.20;;;6.40;;
3891;SDS011;1961;48.194;16.370;2022-08-21T02:58:12;43.00;;;6.83;;
3891;SDS011;1961;48.194;16.370;2022-08-21T03:00:39;41.87;;;6.30;;
3891;SDS011;1961;48.194;16.370;2022-08-21T03:03:06;41.57;;;6.17;;
3891;SDS011;1961;48.194;16.370;2022-08-21T03:05:33;42.50;;;6.47;;
3891;SDS011;1961;48.194;16.370;2022-08-21T03:08:01;42.90;;;7.00;;
3891;SDS011;1961;48.194;16.370;2022-08-21T03:10:27;43.27;;;6.97;;
3891;SDS011;1961;48.194;16.370;2022-08-21T03:12:54;43.67;;;7.03;;
3891;SDS011;1961;48.194;16.370;2022-08-21T03:15:21;42.07;;;6.50;;
3891;SDS011;1961;48.194;16.370;2022-08-21T03:17:49;42.40;;;6.67;;
3891;SDS011;1961;48.194;16.370;2022-08-21T03:20:17;43.57;;;6.70;;
3891;SDS011;1961;48.194;16.370;2022-08-21T03:22:44;42.67;;;6.80;;
3891;SDS011;1961;48.194;16.370;2022-08-21T03:25:10;42.60;;;6.50;;
3891;SDS011;1961;48.194;16.370;2022-08-21T03:27:36;42.03;;;6.33;;
3891;SDS011;1961;48.194;16.370;2022-08-21T03:30:04;42.10;;;5.93;;
3891;SDS011;1961;48.194;16.370;2022-08-21T03:32:31;42.60;;;6.67;;
3891;SDS011;1961;48.194;16.370;2022-08-21T03:34:57;42.17;;;6.20;;
3891;SDS011;1961;48.194;16.370;2022-08-21T03:37:25;41.67;;;5.70;;
3891;SDS011;1961;48.194;16.370;2022-08-21T03:39:52;42.40;;;5.57;;
3891;SDS011;1961;48.194;16.370;2022-08-21T03:42:18;41.70;;;5.67;;
3891;SDS011;1961;48.194;16.370;2022-08-21T03:44:44;40.97;;;5.20;;
3891;SDS011;1961;48.194;16.370;2022-08-21T03:47:11;41.30;;;5.47;;
3891;SDS011;1961;48.194;16.370;2022-08-21T03:49:37;42.17;;;5.70;;
3891;SDS011;1961;48.194;16.370;2022-08-21T03:52:03;41.40;;;4.80;;
3891;SDS011;1961;48.194;16.370;2022-08-21T03:54:30;41.27;;;5.33;;
3891;SDS011;1961;48.194;16.370;2022-08-21T03:56:56;41.30;;;5.20;;
3891;SDS011;1961;48.194;16.370;2022-08-21T03:59:22;40.70;;;4.57;;
3891;SDS011;1961;48.194;16.370;2022-08-21T04:01:53;40.40;;;4.60;;
3891;SDS011;1961;48.194;16.370;2022-08-21T04:04:19;40.77;;;5.23;;
3891;SDS011;1961;48.194;16.370;2022-08-21T04:06:45;40.80;;;4.40;;
3891;SDS011;1961;48.194;16.370;2022-08-21T04:09:12;40.27;;;4.10;;
3891;SDS011;1961;48.194;16.370;2022-08-21T04:11:38;40.60;;;4.37;;
3891;SDS011;1961;48.194;16.370;2022-08-21T04:14:05;40.80;;;4.70;;
3891;SDS011;1961;48.194;16.370;2022-08-21T04:16:31;40.30;;;5.07;;
3891;SDS011;1961;48.194;16.370;2022-08-21T04:18:57;43.90;;;4.87;;
3891;SDS011;1961;48.194;16.370;2022-08-21T04:21:23;40.87;;;4.80;;
3891;SDS011;1961;48.194;16.370;2022-08-21T04:23:50;41.20;;;4.93;;
3891;SDS011;1961;48.194;16.370;2022-08-21T04:26:16;41.00;;;4.93;;
3891;SDS011;1961;48.194;16.370;2022-08-21T04:28:42;41.07;;;5.00;;
3891;SDS011;1961;48.194;16.370;2022-08-21T04:31:08;42.13;;;5.00;;
3891;SDS011;1961;48.194;16.370;2022-08-21T04:33:35;40.83;;;5.10;;
3891;SDS011;1961;48.194;16.370;2022-08-21T04:36:01;41.07;;;5.20;;
3891;SDS011;1961;48.194;16.370;2022-08-21T04:38:27;40.60;;;5.00;;
3891;SDS011;1961;48.194;16.370;2022-08-21T04:40:55;41.30;;;5.10;;
3891;SDS011;1961;48.194;16.370;2022-08-21T04:43:25;41.27;;;5.43;;
3891;SDS011;1961;48.194;16.370;2022-08-21T04:45:51;41.47;;;5.07;;
3891;SDS011;1961;48.194;16.370;2022-08-21T04:48:19;41.23;;;5.60;;
3891;SDS011;1961;48.194;16.370;2022-08-21T04:53:31;41.57;;;6.00;;
3891;SDS011;1961;48.194;16.370;2022-08-21T04:56:04;41.60;;;5.67;;
3891;SDS011;1961;48.194;16.370;2022-08-21T04:58:33;41.37;;;5.70;;
3891;SDS011;1961;48.194;16.370;2022-08-21T05:01:01;41.67;;;5.83;;
3891;SDS011;1961;48.194;16.370;2022-08-21T05:03:29;41.80;;;5.80;;
3891;SDS011;1961;48.194;16.370;2022-08-21T05:05:56;41.60;;;5.53;;
3891;SDS011;1961;48.194;16.370;2022-08-21T05:08:23;41.93;;;5.83;;
3891;SDS011;1961;48.194;16.370;2022-08-21T05:10:50;41.00;;;5.63;;
3891;SDS011;1961;48.194;16.370;2022-08-21T05:13:16;42.33;;;6.10;;
3891;SDS011;1961;48.194;16.370;2022-08-21T05:15:43;44.00;;;5.67;;
3891;SDS011;1961;48.194;16.370;2022-08-21T05:18:10;41.67;;;5.70;;
3891;SDS011;1961;48.194;16.370;2022-08-21T05:20:36;41.83;;;6.00;;
3891;SDS011;1961;48.194;16.370;2022-08-21T05:23:11;43.43;;;6.50;;
3891;SDS011;1961;48.194;16.370;2022-08-21T05:25:38;41.80;;;6.17;;
3891;SDS011;1961;48.194;16.370;2022-08-21T05:28:04;42.90;;;6.50;;
3891;SDS011;1961;48.194;16.370;2022-08-21T05:30:31;42.47;;;6.33;;
3891;SDS011;1961;48.194;16.370;2022-08-21T05:32:58;42.77;;;6.50;;
3891;SDS011;1961;48.194;16.370;2022-08-21T05:35:25;42.17;;;5.90;;
3891;SDS011;1961;48.194;16.370;2022-08-21T05:37:51;43.23;;;6.33;;
3891;SDS011;1961;48.194;16.370;2022-08-21T05:40:17;42.00;;;6.30;;
3891;SDS011;1961;48.194;16.370;2022-08-21T05:42:43;47.83;;;10.07;;
3891;SDS011;1961;48.194;16.370;2022-08-21T05:45:10;46.67;;;9.53;;
3891;SDS011;1961;48.194;16.370;2022-08-21T05:47:36;43.97;;;7.00;;
3891;SDS011;1961;48.194;16.370;2022-08-21T05:50:03;42.17;;;6.53;;
3891;SDS011;1961;48.194;16.370;2022-08-21T05:52:30;42.57;;;6.77;;
3891;SDS011;1961;48.194;16.370;2022-08-21T05:54:56;42.83;;;6.60;;
3891;SDS011;1961;48.194;16.370;2022-08-21T05:57:22;43.20;;;6.97;;
3891;SDS011;1961;48.194;16.370;2022-08-21T05:59:50;42.67;;;6.93;;
3891;SDS011;1961;48.194;16.370;2022-08-21T06:02:17;42.67;;;6.90;;
3891;SDS011;1961;48.194;16.370;2022-08-21T06:04:44;42.77;;;6.73;;
3891;SDS011;1961;48.194;16.370;2022-08-21T06:07:10;42.40;;;6.50;;
3891;SDS011;1961;48.194;16.370;2022-08-21T06:09:37;43.17;;;6.70;;
3891;SDS011;1961;48.194;16.370;2022-08-21T06:12:04;42.37;;;6.50;;
3891;SDS011;1961;48.194;16.370;2022-08-21T06:14:31;42.00;;;6.53;;
3891;SDS011;1961;48.194;16.370;2022-08-21T06:17:04;42.90;;;6.97;;
3891;SDS011;1961;48.194;16.370;2022-08-21T06:19:30;42.33;;;6.53;;
3891;SDS011;1961;48.194;16.370;2022-08-21T06:21:57;43.00;;;6.80;;
3891;SDS011;1961;48.194;16.370;2022-08-21T06:24:26;42.40;;;6.87;;
3891;SDS011;1961;48.194;16.370;2022-08-21T06:26:52;42.33;;;6.57;;
3891;SDS011;1961;48.194;16.370;2022-08-21T06:29:19;42.73;;;7.10;;
3891;SDS011;1961;48.194;16.370;2022-08-21T06:31:46;42.70;;;6.67;;
3891;SDS011;1961;48.194;16.370;2022-08-21T06:34:12;42.40;;;6.33;;
3891;SDS011;1961;48.194;16.370;2022-08-21T06:36:38;42.80;;;6.50;;
3891;SDS011;1961;48.194;16.370;2022-08-21T06:39:04;42.77;;;6.70;;
3891;SDS011;1961;48.194;16.370;2022-08-21T06:41:31;41.20;;;5.87;;
3891;SDS011;1961;48.194;16.370;2022-08-21T06:43:57;42.80;;;6.83;;
3891;SDS011;1961;48.194;16.370;2022-08-21T06:46:24;42.60;;;6.80;;
3891;SDS011;1961;48.194;16.370;2022-08-21T06:48:51;43.63;;;6.20;;
3891;SDS011;1961;48.194;16.370;2022-08-21T06:51:17;42.03;;;6.37;;
3891;SDS011;1961;48.194;16.370;2022-08-21T06:53:44;43.30;;;7.00;;
3891;SDS011;1961;48.194;16.370;2022-08-21T06:56:11;42.50;;;7.27;;
3891;SDS011;1961;48.194;16.370;2022-08-21T06:58:37;42.70;;;6.90;;
3891;SDS011;1961;48.194;16.370;2022-08-21T07:01:03;41.90;;;6.53;;
3891;SDS011;1961;48.194;16.370;2022-08-21T07:03:35;43.30;;;7.60;;
3891;SDS011;1961;48.194;16.370;2022-08-21T07:06:02;43.03;;;7.20;;
3891;SDS011;1961;48.194;16.370;2022-08-21T07:08:28;42.20;;;6.70;;
3891;SDS011;1961;48.194;16.370;2022-08-21T07:10:55;42.57;;;6.40;;
3891;SDS011;1961;48.194;16.370;2022-08-21T07:13:21;42.10;;;6.93;;
3891;SDS011;1961;48.194;16.370;2022-08-21T07:15:48;42.23;;;6.87;;
3891;SDS011;1961;48.194;16.370;2022-08-21T07:18:14;42.90;;;7.07;;
3891;SDS011;1961;48.194;16.370;2022-08-21T07:20:41;44.43;;;7.50;;
3891;SDS011;1961;48.194;16.370;2022-08-21T07:23:09;43.40;;;7.00;;
3891;SDS011;1961;48.194;16.370;2022-08-21T07:25:36;43.07;;;6.93;;
3891;SDS011;1961;48.194;16.370;2022-08-21T07:28:03;41.40;;;5.90;;
3891;SDS011;1961;48.194;16.370;2022-08-21T07:30:29;42.60;;;6.70;;
3891;SDS011;1961;48.194;16.370;2022-08-21T07:32:56;42.97;;;6.80;;
3891;SDS011;1961;48.194;16.370;2022-08-21T07:35:23;42.27;;;6.97;;
3891;SDS011;1961;48.194;16.370;2022-08-21T07:37:49;45.00;;;7.60;;
3891;SDS011;1961;48.194;16.370;2022-08-21T07:40:15;43.17;;;6.50;;
3891;SDS011;1961;48.194;16.370;2022-08-21T07:42:42;42.30;;;7.37;;
3891;SDS011;1961;48.194;16.370;2022-08-21T07:45:10;42.70;;;7.30;;
3891;SDS011;1961;48.194;16.370;2022-08-21T07:47:36;43.70;;;7.27;;
3891;SDS011;1961;48.194;16.370;2022-08-21T07:50:04;42.00;;;6.47;;
3891;SDS011;1961;48.194;16.370;2022-08-21T07:52:30;42.37;;;6.70;;
3891;SDS011;1961;48.194;16.370;2022-08-21T07:54:57;42.47;;;6.60;;
3891;SDS011;1961;48.194;16.370;2022-08-21T07:57:24;43.17;;;7.30;;
3891;SDS011;1961;48.194;16.370;2022-08-21T07:59:50;41.60;;;6.37;;
3891;SDS011;1961;48.194;16.370;2022-08-21T08:02:23;42.13;;;6.73;;
3891;SDS011;1961;48.194;16.370;2022-08-21T08:04:50;43.03;;;6.50;;
3891;SDS011;1961;48.194;16.370;2022-08-21T08:07:16;42.80;;;6.90;;
3891;SDS011;1961;48.194;16.370;2022-08-21T08:09:43;42.80;;;7.30;;
3891;SDS011;1961;48.194;16.370;2022-08-21T08:12:12;42.97;;;7.13;;
3891;SDS011;1961;48.194;16.370;2022-08-21T08:14:38;45.00;;;8.50;;
3891;SDS011;1961;48.194;16.370;2022-08-21T08:17:04;43.80;;;8.10;;
3891;SDS011;1961;48.194;16.370;2022-08-21T08:19:30;43.10;;;7.73;;
3891;SDS011;1961;48.194;16.370;2022-08-21T08:21:57;43.80;;;8.37;;
3891;SDS011;1961;48.194;16.370;2022-08-21T08:24:23;44.10;;;7.90;;
3891;SDS011;1961;48.194;16.370;2022-08-21T08:26:49;44.37;;;7.93;;
3891;SDS011;1961;48.194;16.370;2022-08-21T08:29:15;43.83;;;7.87;;
3891;SDS011;1961;48.194;16.370;2022-08-21T08:31:42;42.47;;;7.10;;
3891;SDS011;1961;48.194;16.370;2022-08-21T08:34:08;43.50;;;7.37;;
3891;SDS011;1961;48.194;16.370;2022-08-21T08:36:35;44.07;;;7.80;;
3891;SDS011;1961;48.194;16.370;2022-08-21T08:39:03;44.57;;;7.70;;
3891;SDS011;1961;48.194;16.370;2022-08-21T08:41:29;44.83;;;7.70;;
3891;SDS011;1961;48.194;16.370;2022-08-21T08:44:01;43.20;;;7.60;;
3891;SDS011;1961;48.194;16.370;2022-08-21T08:46:32;42.70;;;7.60;;
3891;SDS011;1961;48.194;16.370;2022-08-21T08:49:06;42.80;;;7.33;;
3891;SDS011;1961;48.194;16.370;2022-08-21T08:51:56;43.30;;;8.00;;
3891;SDS011;1961;48.194;16.370;2022-08-21T08:54:28;43.07;;;6.93;;
3891;SDS011;1961;48.194;16.370;2022-08-21T08:56:59;42.17;;;6.80;;
3891;SDS011;1961;48.194;16.370;2022-08-21T08:59:27;43.30;;;6.73;;
3891;SDS011;1961;48.194;16.370;2022-08-21T09:01:57;44.20;;;7.43;;
3891;SDS011;1961;48.194;16.370;2022-08-21T09:04:24;46.33;;;7.50;;
3891;SDS011;1961;48.194;16.370;2022-08-21T09:12:18;42.97;;;7.17;;
3891;SDS011;1961;48.194;16.370;2022-08-21T09:17:49;42.17;;;6.77;;
3891;SDS011;1961;48.194;16.370;2022-08-21T09:25:28;41.67;;;5.90;;
3891;SDS011;1961;48.194;16.370;2022-08-21T09:27:57;42.57;;;6.20;;
3891;SDS011;1961;48.194;16.370;2022-08-21T09:30:25;44.03;;;7.00;;
3891;SDS011;1961;48.194;16.370;2022-08-21T09:32:52;41.97;;;5.47;;
3891;SDS011;1961;48.194;16.370;2022-08-21T09:35:19;40.97;;;5.30;;
3891;SDS011;1961;48.194;16.370;2022-08-21T09:37:59;41.90;;;5.37;;
3891;SDS011;1961;48.194;16.370;2022-08-21T09:40:33;41.07;;;5.50;;
3891;SDS011;1961;48.194;16.370;2022-08-21T09:43:03;41.20;;;5.30;;
3891;SDS011;1961;48.194;16.370;2022-08-21T09:45:31;41.07;;;5.30;;
3891;SDS011;1961;48.194;16.370;2022-08-21T09:50:42;44.63;;;5.20;;
3891;SDS011;1961;48.194;16.370;2022-08-21T09:53:25;40.90;;;5.13;;
3891;SDS011;1961;48.194;16.370;2022-08-21T09:55:54;42.13;;;5.10;;
3891;SDS011;1961;48.194;16.370;2022-08-21T09:58:41;40.90;;;4.93;;
3891;SDS011;1961;48.194;16.370;2022-08-21T10:01:13;41.47;;;5.10;;
3891;SDS011;1961;48.194;16.370;2022-08-21T10:03:40;41.90;;;5.10;;
3891;SDS011;1961;48.194;16.370;2022-08-21T10:06:07;40.43;;;4.50;;
3891;SDS011;1961;48.194;16.370;2022-08-21T10:08:36;41.20;;;5.00;;
3891;SDS011;1961;48.194;16.370;2022-08-21T10:11:10;40.67;;;4.30;;
3891;SDS011;1961;48.194;16.370;2022-08-21T10:21:45;41.13;;;4.23;;
3891;SDS011;1961;48.194;16.370;2022-08-21T10:24:23;40.80;;;5.30;;
3891;SDS011;1961;48.194;16.370;2022-08-21T10:27:03;41.33;;;5.07;;
3891;SDS011;1961;48.194;16.370;2022-08-21T10:47:42;42.40;;;6.77;;
3891;SDS011;1961;48.194;16.370;2022-08-21T10:50:12;41.70;;;6.07;;
3891;SDS011;1961;48.194;16.370;2022-08-21T10:57:49;41.63;;;5.90;;
3891;SDS011;1961;48.194;16.370;2022-08-21T11:00:23;45.83;;;5.60;;
3891;SDS011;1961;48.194;16.370;2022-08-21T11:03:00;42.43;;;6.10;;
3891;SDS011;1961;48.194;16.370;2022-08-21T11:08:22;40.87;;;5.80;;
3891;SDS011;1961;48.194;16.370;2022-08-21T11:11:04;41.07;;;5.43;;
3891;SDS011;1961;48.194;16.370;2022-08-21T11:13:37;41.10;;;4.80;;
3891;SDS011;1961;48.194;16.370;2022-08-21T11:16:14;41.47;;;4.70;;
3891;SDS011;1961;48.194;16.370;2022-08-21T11:18:44;40.80;;;4.60;;
3891;SDS011;1961;48.194;16.370;2022-08-21T11:23:53;41.77;;;4.30;;
3891;SDS011;1961;48.194;16.370;2022-08-21T11:26:28;40.27;;;4.60;;
3891;SDS011;1961;48.194;16.370;2022-08-21T11:29:16;42.07;;;4.80;;
3891;SDS011;1961;48.194;16.370;2022-08-21T11:39:22;40.50;;;4.70;;
3891;SDS011;1961;48.194;16.370;2022-08-21T11:42:02;41.60;;;4.80;;
3891;SDS011;1961;48.194;16.370;2022-08-21T11:50:06;40.67;;;4.70;;
3891;SDS011;1961;48.194;16.370;2022-08-21T11:52:39;40.70;;;4.63;;
3891;SDS011;1961;48.194;16.370;2022-08-21T11:55:08;40.17;;;4.50;;
3891;SDS011;1961;48.194;16.370;2022-08-21T11:57:40;40.33;;;4.63;;
3891;SDS011;1961;48.194;16.370;2022-08-21T12:00:11;41.30;;;4.50;;
3891;SDS011;1961;48.194;16.370;2022-08-21T12:02:45;40.60;;;4.40;;
3891;SDS011;1961;48.194;16.370;2022-08-21T12:05:32;40.90;;;4.70;;
3891;SDS011;1961;48.194;16.370;2022-08-21T12:08:02;41.00;;;4.40;;
3891;SDS011;1961;48.194;16.370;2022-08-21T12:10:36;40.70;;;4.60;;
3891;SDS011;1961;48.194;16.370;2022-08-21T12:13:06;40.37;;;4.70;;
3891;SDS011;1961;48.194;16.370;2022-08-21T12:15:33;40.40;;;4.63;;
3891;SDS011;1961;48.194;16.370;2022-08-21T12:18:18;40.80;;;4.90;;
3891;SDS011;1961;48.194;16.370;2022-08-21T12:21:00;41.07;;;5.00;;
3891;SDS011;1961;48.194;16.370;2022-08-21T12:23:27;41.40;;;5.00;;
3891;SDS011;1961;48.194;16.370;2022-08-21T12:28:39;41.60;;;4.40;;
3891;SDS011;1961;48.194;16.370;2022-08-21T12:31:17;40.50;;;4.50;;
3891;SDS011;1961;48.194;16.370;2022-08-21T12:33:47;40.17;;;4.33;;
3891;SDS011;1961;48.194;16.370;2022-08-21T12:36:17;40.77;;;4.90;;
3891;SDS011;1961;48.194;16.370;2022-08-21T12:41:17;42.13;;;4.80;;
3891;SDS011;1961;48.194;16.370;2022-08-21T12:43:46;41.77;;;4.80;;
3891;SDS011;1961;48.194;16.370;2022-08-21T12:46:21;40.77;;;5.03;;
3891;SDS011;1961;48.194;16.370;2022-08-21T12:48:52;41.30;;;4.90;;
3891;SDS011;1961;48.194;16.370;2022-08-21T12:51:22;40.37;;;4.90;;
3891;SDS011;1961;48.194;16.370;2022-08-21T12:53:54;40.83;;;4.70;;
3891;SDS011;1961;48.194;16.370;2022-08-21T12:56:22;40.50;;;4.80;;
3891;SDS011;1961;48.194;16.370;2022-08-21T12:58:51;41.13;;;4.77;;
3891;SDS011;1961;48.194;16.370;2022-08-21T13:01:25;47.13;;;5.07;;
3891;SDS011;1961;48.194;16.370;2022-08-21T13:03:54;40.23;;;4.80;;
3891;SDS011;1961;48.194;16.370;2022-08-21T13:06:21;41.67;;;5.30;;
3891;SDS011;1961;48.194;16.370;2022-08-21T13:08:49;41.70;;;5.30;;
3891;SDS011;1961;48.194;16.370;2022-08-21T13:11:18;42.17;;;5.43;;
3891;SDS011;1961;48.194;16.370;2022-08-21T13:13:49;42.03;;;4.90;;
3891;SDS011;1961;48.194;16.370;2022-08-21T13:16:20;42.43;;;4.90;;
3891;SDS011;1961;48.194;16.370;2022-08-21T13:21:19;40.90;;;4.90;;
3891;SDS011;1961;48.194;16.370;2022-08-21T13:23:46;41.47;;;4.83;;
3891;SDS011;1961;48.194;16.370;2022-08-21T13:26:14;41.70;;;5.03;;
3891;SDS011;1961;48.194;16.370;2022-08-21T13:28:41;41.47;;;4.80;;
3891;SDS011;1961;48.194;16.370;2022-08-21T13:31:12;42.33;;;5.50;;
3891;SDS011;1961;48.194;16.370;2022-08-21T13:33:38;42.40;;;5.87;;
3891;SDS011;1961;48.194;16.370;2022-08-21T13:36:09;41.23;;;4.83;;
3891;SDS011;1961;48.194;16.370;2022-08-21T13:38:37;41.07;;;5.63;;
3891;SDS011;1961;48.194;16.370;2022-08-21T13:41:12;41.17;;;5.10;;
3891;SDS011;1961;48.194;16.370;2022-08-21T13:43:46;41.20;;;5.10;;
3891;SDS011;1961;48.194;16.370;2022-08-21T13:46:14;40.70;;;5.00;;
3891;SDS011;1961;48.194;16.370;2022-08-21T13:48:40;41.97;;;5.70;;
3891;SDS011;1961;48.194;16.370;2022-08-21T13:51:07;40.97;;;5.37;;
3891;SDS011;1961;48.194;16.370;2022-08-21T13:53:35;40.83;;;5.00;;
3891;SDS011;1961;48.194;16.370;2022-08-21T13:56:03;43.77;;;5.03;;
3891;SDS011;1961;48.194;16.370;2022-08-21T13:58:40;41.93;;;5.00;;
3891;SDS011;1961;48.194;16.370;2022-08-21T14:01:15;44.30;;;5.53;;
3891;SDS011;1961;48.194;16.370;2022-08-21T14:03:43;41.10;;;5.13;;
3891;SDS011;1961;48.194;16.370;2022-08-21T14:06:12;41.77;;;5.10;;
3891;SDS011;1961;48.194;16.370;2022-08-21T14:08:39;41.50;;;5.57;;
3891;SDS011;1961;48.194;16.370;2022-08-21T14:11:09;43.10;;;5.93;;
3891;SDS011;1961;48.194;16.370;2022-08-21T14:16:03;42.47;;;6.03;;
3891;SDS011;1961;48.194;16.370;2022-08-21T14:18:29;42.27;;;5.57;;
3891;SDS011;1961;48.194;16.370;2022-08-21T14:21:08;44.00;;;5.70;;
3891;SDS011;1961;48.194;16.370;2022-08-21T14:23:35;42.87;;;5.63;;
3891;SDS011;1961;48.194;16.370;2022-08-21T14:26:02;43.43;;;5.63;;
3891;SDS011;1961;48.194;16.370;2022-08-21T14:28:33;44.73;;;6.20;;
3891;SDS011;1961;48.194;16.370;2022-08-21T14:31:14;41.77;;;5.90;;
3891;SDS011;1961;48.194;16.370;2022-08-21T14:33:41;41.60;;;6.00;;
3891;SDS011;1961;48.194;16.370;2022-08-21T14:36:07;42.87;;;5.77;;
3891;SDS011;1961;48.194;16.370;2022-08-21T14:38:34;43.80;;;6.17;;
3891;SDS011;1961;48.194;16.370;2022-08-21T14:43:36;41.83;;;5.87;;
3891;SDS011;1961;48.194;16.370;2022-08-21T14:46:03;42.70;;;6.50;;
3891;SDS011;1961;48.194;16.370;2022-08-21T14:48:29;42.43;;;6.13;;
3891;SDS011;1961;48.194;16.370;2022-08-21T14:50:55;41.83;;;6.40;;
3891;SDS011;1961;48.194;16.370;2022-08-21T14:53:21;42.00;;;6.17;;
3891;SDS011;1961;48.194;16.370;2022-08-21T14:55:48;42.33;;;6.13;;
3891;SDS011;1961;48.194;16.370;2022-08-21T14:58:29;41.87;;;6.30;;
3891;SDS011;1961;48.194;16.370;2022-08-21T15:00:56;41.97;;;6.50;;
3891;SDS011;1961;48.194;16.370;2022-08-21T15:03:23;44.27;;;6.53;;
3891;SDS011;1961;48.194;16.370;2022-08-21T15:05:50;42.73;;;6.40;;
3891;SDS011;1961;48.194;16.370;2022-08-21T15:08:17;43.40;;;6.60;;
3891;SDS011;1961;48.194;16.370;2022-08-21T15:10:43;41.97;;;6.23;;
3891;SDS011;1961;48.194;16.370;2022-08-21T15:13:13;41.90;;;6.57;;
3891;SDS011;1961;48.194;16.370;2022-08-21T15:15:40;47.97;;;6.83;;
3891;SDS011;1961;48.194;16.370;2022-08-21T15:18:07;42.67;;;6.27;;
3891;SDS011;1961;48.194;16.370;2022-08-21T15:20:33;42.70;;;6.67;;
3891;SDS011;1961;48.194;16.370;2022-08-21T15:22:59;42.20;;;6.53;;
3891;SDS011;1961;48.194;16.370;2022-08-21T15:25:26;42.90;;;6.20;;
3891;SDS011;1961;48.194;16.370;2022-08-21T15:27:52;43.20;;;6.60;;
3891;SDS011;1961;48.194;16.370;2022-08-21T15:30:18;42.33;;;6.60;;
3891;SDS011;1961;48.194;16.370;2022-08-21T15:32:45;42.70;;;6.43;;
3891;SDS011;1961;48.194;16.370;2022-08-21T15:35:11;42.50;;;6.43;;
3891;SDS011;1961;48.194;16.370;2022-08-21T15:37:37;41.77;;;6.20;;
3891;SDS011;1961;48.194;16.370;2022-08-21T15:40:04;42.37;;;6.13;;
3891;SDS011;1961;48.194;16.370;2022-08-21T15:42:32;41.40;;;5.73;;
3891;SDS011;1961;48.194;16.370;2022-08-21T15:44:59;45.63;;;6.87;;
3891;SDS011;1961;48.194;16.370;2022-08-21T15:47:30;43.30;;;6.47;;
3891;SDS011;1961;48.194;16.370;2022-08-21T15:49:58;43.50;;;7.10;;
3891;SDS011;1961;48.194;16.370;2022-08-21T15:52:25;42.10;;;6.47;;
3891;SDS011;1961;48.194;16.370;2022-08-21T15:54:51;42.10;;;6.30;;
3891;SDS011;1961;48.194;16.370;2022-08-21T15:57:19;44.60;;;7.20;;
3891;SDS011;1961;48.194;16.370;2022-08-21T15:59:47;42.37;;;6.70;;
3891;SDS011;1961;48.194;16.370;2022-08-21T16:02:15;42.60;;;6.23;;
3891;SDS011;1961;48.194;16.370;2022-08-21T16:04:43;42.20;;;6.00;;
3891;SDS011;1961;48.194;16.370;2022-08-21T16:07:09;42.53;;;6.70;;
3891;SDS011;1961;48.194;16.370;2022-08-21T16:09:35;42.70;;;6.23;;
3891;SDS011;1961;48.194;16.370;2022-08-21T16:12:02;42.83;;;6.70;;
3891;SDS011;1961;48.194;16.370;2022-08-21T16:14:30;42.07;;;6.67;;
3891;SDS011;1961;48.194;16.370;2022-08-21T16:16:56;43.70;;;6.50;;